createdAt,value
2017-08-18T00:02:02.263Z,82.03
2017-08-18T00:04:29.869Z,81.88
2017-08-18T00:06:57.473Z,82.21
2017-08-18T00:09:25.351Z,81.46
2017-08-18T00:11:52.967Z,81.83
2017-08-18T00:14:20.574Z,81.75
2017-08-18T00:16:48.248Z,81.81
2017-08-18T00:19:15.871Z,81.36
2017-08-18T00:21:43.495Z,81.68
2017-08-18T00:24:11.162Z,82.43
2017-08-18T00:26:38.776Z,82.48
2017-08-18T00:29:06.390Z,83.09
2017-08-18T00:31:34.052Z,83.21
2017-08-18T00:34:01.666Z,82.51
2017-08-18T00:36:29.297Z,81.60
2017-08-18T00:38:56.970Z,81.92
2017-08-18T00:41:24.592Z,82.81
2017-08-18T00:43:52.216Z,82.30
2017-08-18T00:46:19.912Z,80.34
2017-08-18T00:48:47.531Z,81.56
2017-08-18T00:51:15.413Z,80.03
2017-08-18T00:53:43.529Z,79.75
2017-08-18T00:56:11.418Z,80.70
2017-08-18T00:58:39.263Z,81.93
2017-08-18T01:01:06.949Z,83.08
2017-08-18T01:03:34.674Z,82.91
2017-08-18T01:06:02.638Z,83.47
2017-08-18T01:08:30.317Z,83.07
2017-08-18T01:10:57.958Z,83.09
2017-08-18T01:13:25.575Z,83.46
2017-08-18T01:15:53.251Z,82.86
2017-08-18T01:18:20.863Z,82.70
2017-08-18T01:20:48.481Z,81.87
2017-08-18T01:23:16.145Z,81.95
2017-08-18T01:25:43.774Z,81.93
2017-08-18T01:28:11.398Z,81.90
2017-08-18T01:30:39.067Z,82.18
2017-08-18T01:33:06.676Z,82.88
2017-08-18T01:35:34.293Z,82.98
2017-08-18T01:38:01.977Z,82.90
2017-08-18T01:40:29.598Z,82.65
2017-08-18T01:42:57.207Z,82.66
2017-08-18T01:45:24.891Z,82.42
2017-08-18T01:47:52.527Z,82.96
2017-08-18T01:50:20.142Z,82.87
2017-08-18T01:52:47.964Z,83.02
2017-08-18T01:55:15.904Z,82.85
2017-08-18T01:57:43.584Z,83.28
2017-08-18T02:00:11.261Z,83.14
2017-08-18T02:02:38.870Z,84.28
2017-08-18T02:05:06.474Z,83.82
2017-08-18T02:07:34.137Z,83.68
2017-08-18T02:10:01.737Z,83.66
2017-08-18T02:12:29.368Z,82.91
2017-08-18T02:14:57.047Z,81.95
2017-08-18T02:17:24.666Z,82.37
2017-08-18T02:20:19.593Z,81.84
2017-08-18T02:22:47.189Z,82.01
2017-08-18T02:25:14.831Z,82.71
2017-08-18T02:27:42.532Z,83.62
2017-08-18T02:30:10.151Z,83.40
2017-08-18T02:32:37.778Z,82.84
2017-08-18T02:35:05.450Z,82.33
2017-08-18T02:37:33.082Z,82.60
2017-08-18T02:40:00.714Z,83.30
2017-08-18T02:42:28.400Z,83.11
2017-08-18T02:44:56.024Z,83.49
2017-08-18T02:47:23.631Z,83.66
2017-08-18T02:49:51.298Z,85.03
2017-08-18T02:52:18.923Z,85.51
2017-08-18T02:54:46.545Z,85.52
2017-08-18T02:57:14.237Z,85.54
2017-08-18T02:59:41.891Z,85.69
2017-08-18T03:02:09.517Z,85.48
2017-08-18T03:04:37.198Z,84.45
2017-08-18T03:07:04.812Z,84.70
2017-08-18T03:09:32.441Z,84.59
2017-08-18T03:12:00.142Z,84.65
2017-08-18T03:14:27.771Z,84.05
2017-08-18T03:16:55.400Z,84.58
2017-08-18T03:19:23.091Z,85.28
2017-08-18T03:21:50.698Z,85.30
2017-08-18T03:24:18.318Z,85.36
2017-08-18T03:26:45.996Z,84.98
2017-08-18T03:29:13.620Z,84.45
2017-08-18T03:31:41.246Z,83.97
2017-08-18T03:34:08.945Z,84.31
2017-08-18T03:36:36.573Z,82.41
2017-08-18T03:39:04.265Z,81.30
2017-08-18T03:41:31.938Z,81.86
2017-08-18T03:43:59.552Z,81.80
2017-08-18T03:46:27.141Z,82.12
2017-08-18T03:48:54.872Z,81.79
2017-08-18T03:51:22.529Z,81.67
2017-08-18T03:53:50.155Z,81.82
2017-08-18T03:56:17.830Z,81.15
2017-08-18T03:58:45.447Z,79.93
2017-08-18T04:01:13.062Z,76.54
2017-08-18T04:03:40.971Z,74.05
2017-08-18T04:06:08.839Z,71.68
2017-08-18T04:08:36.485Z,69.13
2017-08-18T04:11:04.158Z,66.98
2017-08-18T04:13:31.784Z,64.32
2017-08-18T04:15:59.395Z,62.23
2017-08-18T04:18:27.089Z,59.88
2017-08-18T04:20:54.761Z,58.01
2017-08-18T04:23:22.378Z,57.23
2017-08-18T04:25:50.057Z,56.18
2017-08-18T04:28:17.678Z,54.33
2017-08-18T04:30:45.312Z,53.16
2017-08-18T04:33:12.986Z,50.24
2017-08-18T04:35:40.612Z,49.03
2017-08-18T04:38:08.236Z,47.45
2017-08-18T04:40:35.928Z,46.69
2017-08-18T04:43:03.541Z,44.64
2017-08-18T04:45:31.158Z,44.46
2017-08-18T04:47:58.908Z,43.37
2017-08-18T04:50:26.562Z,43.99
2017-08-18T04:52:54.178Z,41.55
2017-08-18T04:55:21.857Z,39.85
2017-08-18T04:57:49.485Z,39.65
2017-08-18T05:00:17.103Z,38.68
2017-08-18T05:02:44.768Z,40.00
2017-08-18T05:05:12.396Z,38.45
2017-08-18T05:07:40.008Z,38.78
2017-08-18T05:10:07.691Z,37.73
2017-08-18T05:12:35.300Z,37.96
2017-08-18T05:15:02.924Z,37.38
2017-08-18T05:17:30.600Z,36.41
2017-08-18T05:19:58.240Z,37.54
2017-08-18T05:22:25.874Z,36.08
2017-08-18T05:24:53.562Z,36.33
2017-08-18T05:27:21.188Z,36.61
2017-08-18T05:29:48.819Z,35.90
2017-08-18T05:32:16.481Z,35.07
2017-08-18T05:34:44.099Z,35.30
2017-08-18T05:37:11.719Z,33.75
2017-08-18T05:39:39.408Z,34.31
2017-08-18T05:42:07.097Z,32.45
2017-08-18T05:44:34.715Z,33.42
2017-08-18T05:47:02.387Z,31.39
2017-08-18T05:49:30.040Z,31.01
2017-08-18T05:51:57.659Z,31.56
2017-08-18T05:54:25.324Z,31.76
2017-08-18T05:56:52.947Z,32.24
2017-08-18T05:59:20.561Z,31.08
2017-08-18T06:01:48.240Z,29.21
2017-08-18T06:04:15.859Z,28.23
2017-08-18T06:06:43.464Z,28.30
2017-08-18T06:09:11.122Z,28.21
2017-08-18T06:11:38.731Z,28.77
2017-08-18T06:14:06.338Z,27.11
2017-08-18T06:16:34.009Z,27.14
2017-08-18T06:19:01.648Z,27.55
2017-08-18T06:21:29.255Z,28.41
2017-08-18T06:23:56.933Z,27.06
2017-08-18T06:26:24.560Z,27.88
2017-08-18T06:28:52.174Z,27.34
2017-08-18T06:31:19.853Z,27.14
2017-08-18T06:33:47.469Z,25.29
2017-08-18T06:36:15.068Z,26.85
2017-08-18T06:38:42.755Z,25.85
2017-08-18T06:41:10.401Z,25.92
2017-08-18T06:43:38.020Z,26.36
2017-08-18T06:46:05.722Z,26.45
2017-08-18T06:48:33.365Z,26.17
2017-08-18T06:51:00.997Z,26.37
2017-08-18T06:53:28.665Z,27.35
2017-08-18T06:55:56.272Z,26.96
2017-08-18T06:58:23.891Z,27.73
2017-08-18T07:00:51.568Z,25.46
2017-08-18T07:03:19.197Z,24.60
2017-08-18T07:05:46.821Z,26.73
2017-08-18T07:08:14.521Z,25.71
2017-08-18T07:10:42.143Z,26.35
2017-08-18T07:13:09.779Z,25.29
2017-08-18T07:15:37.466Z,25.37
2017-08-18T07:18:05.099Z,25.06
2017-08-18T07:20:32.758Z,24.34
2017-08-18T07:23:00.429Z,24.59
2017-08-18T07:25:28.048Z,23.67
2017-08-18T07:27:55.672Z,23.84
2017-08-18T07:30:23.351Z,25.95
2017-08-18T07:32:50.995Z,26.40
2017-08-18T07:35:18.624Z,26.36
2017-08-18T07:37:46.300Z,25.27
2017-08-18T07:40:13.912Z,24.37
2017-08-18T07:42:41.533Z,23.86
2017-08-18T07:45:09.238Z,23.87
2017-08-18T07:47:36.855Z,23.44
2017-08-18T07:50:04.487Z,24.15
2017-08-18T07:52:32.194Z,22.92
2017-08-18T07:54:59.797Z,23.73
2017-08-18T07:57:27.414Z,25.42
2017-08-18T07:59:55.074Z,24.21
2017-08-18T08:02:22.679Z,22.62
2017-08-18T08:04:50.304Z,22.31
2017-08-18T08:07:17.970Z,21.94
2017-08-18T08:09:45.631Z,22.06
2017-08-18T08:12:13.273Z,21.95
2017-08-18T08:14:40.953Z,21.29
2017-08-18T08:17:08.583Z,23.01
2017-08-18T08:19:36.202Z,24.20
2017-08-18T08:22:03.875Z,23.06
2017-08-18T08:24:31.504Z,21.74
2017-08-18T08:26:59.101Z,23.82
2017-08-18T08:29:26.812Z,23.35
2017-08-18T08:31:54.436Z,21.98
2017-08-18T08:34:22.032Z,22.83
2017-08-18T08:36:49.712Z,23.09
2017-08-18T08:39:17.528Z,21.94
2017-08-18T08:41:45.133Z,21.73
2017-08-18T08:44:12.796Z,23.12
2017-08-18T08:46:40.423Z,23.28
2017-08-18T08:49:08.052Z,22.12
2017-08-18T08:51:35.729Z,21.85
2017-08-18T08:54:03.337Z,22.28
2017-08-18T08:56:30.956Z,23.57
2017-08-18T08:58:58.650Z,22.39
2017-08-18T09:01:26.269Z,20.86
2017-08-18T09:03:53.873Z,22.16
2017-08-18T09:06:21.532Z,23.29
2017-08-18T09:08:49.156Z,22.59
2017-08-18T09:11:16.791Z,22.47
2017-08-18T09:13:44.461Z,22.98
2017-08-18T09:16:12.094Z,23.05
2017-08-18T09:18:39.719Z,23.70
2017-08-18T09:21:07.395Z,21.44
2017-08-18T09:23:35.023Z,22.40
2017-08-18T09:26:02.638Z,22.53
2017-08-18T09:28:30.317Z,21.85
2017-08-18T09:30:57.921Z,21.19
2017-08-18T09:33:25.548Z,20.74
2017-08-18T09:35:53.264Z,20.34
2017-08-18T09:38:20.896Z,21.15
2017-08-18T09:40:48.520Z,19.44
2017-08-18T09:43:16.206Z,20.26
2017-08-18T09:45:43.820Z,22.68
2017-08-18T09:51:23.944Z,21.02
2017-08-18T09:57:04.921Z,20.76
2017-08-18T09:59:32.588Z,20.17
2017-08-18T10:02:00.459Z,18.65
2017-08-18T10:04:28.065Z,19.31
2017-08-18T10:06:55.712Z,20.57
2017-08-18T10:09:23.320Z,17.83
2017-08-18T10:11:50.929Z,18.94
2017-08-18T10:14:18.585Z,17.98
2017-08-18T10:16:46.204Z,18.30
2017-08-18T10:19:13.806Z,19.49
2017-08-18T10:21:41.510Z,20.04
2017-08-18T10:24:09.151Z,20.65
2017-08-18T10:26:36.767Z,19.65
2017-08-18T10:29:04.461Z,19.90
2017-08-18T10:31:32.080Z,19.32
2017-08-18T10:33:59.696Z,21.45
2017-08-18T10:36:27.359Z,18.93
2017-08-18T10:38:54.962Z,19.14
2017-08-18T10:41:22.574Z,19.12
2017-08-18T10:43:50.238Z,22.29
2017-08-18T10:46:17.842Z,18.13
2017-08-18T10:48:45.549Z,17.85
2017-08-18T10:51:13.216Z,17.07
2017-08-18T10:53:40.828Z,18.73
2017-08-18T10:56:08.495Z,17.89
2017-08-18T10:58:36.145Z,20.14
2017-08-18T11:01:03.799Z,16.89
2017-08-18T11:03:31.419Z,16.03
2017-08-18T11:05:59.097Z,17.59
2017-08-18T11:08:26.706Z,19.32
2017-08-18T11:10:54.316Z,18.59
2017-08-18T11:13:22.014Z,18.20
2017-08-18T11:15:49.656Z,16.45
2017-08-18T11:18:17.275Z,15.40
2017-08-18T11:20:44.961Z,17.00
2017-08-18T11:23:12.580Z,18.06
2017-08-18T11:25:40.277Z,16.96
2017-08-18T11:28:07.943Z,18.39
2017-08-18T11:30:35.554Z,18.79
2017-08-18T11:33:03.166Z,17.64
2017-08-18T11:35:30.846Z,18.13
2017-08-18T11:37:58.463Z,17.85
2017-08-18T11:40:26.092Z,16.29
2017-08-18T11:42:53.793Z,16.65
2017-08-18T11:45:21.392Z,16.86
2017-08-18T11:47:49.212Z,18.61
2017-08-18T11:50:16.872Z,16.23
2017-08-18T11:52:44.466Z,15.58
2017-08-18T11:55:12.086Z,18.92
2017-08-18T11:57:39.764Z,17.00
2017-08-18T12:00:07.405Z,17.02
2017-08-18T12:02:35.024Z,16.87
2017-08-18T12:05:02.707Z,18.19
2017-08-18T12:07:30.315Z,15.83
2017-08-18T12:09:57.914Z,15.74
2017-08-18T12:12:25.557Z,17.55
2017-08-18T12:14:53.197Z,19.19
2017-08-18T12:17:20.815Z,17.33
2017-08-18T12:19:48.491Z,16.65
2017-08-18T12:22:16.093Z,17.79
2017-08-18T12:24:43.708Z,16.58
2017-08-18T12:27:11.388Z,15.91
2017-08-18T12:29:39.008Z,14.35
2017-08-18T12:32:06.610Z,14.84
2017-08-18T12:34:34.310Z,13.83
2017-08-18T12:37:01.900Z,13.63
2017-08-18T12:39:29.501Z,13.63
2017-08-18T12:41:57.272Z,15.26
2017-08-18T12:44:24.880Z,17.89
2017-08-18T12:46:52.487Z,16.25
2017-08-18T12:49:20.156Z,16.13
2017-08-18T12:51:47.780Z,16.62
2017-08-18T12:54:15.394Z,17.60
2017-08-18T12:56:43.073Z,19.24
2017-08-18T12:59:10.664Z,19.25
2017-08-18T13:01:38.262Z,19.44
2017-08-18T13:04:05.940Z,20.41
2017-08-18T13:06:33.562Z,20.07
2017-08-18T13:09:01.183Z,20.36
2017-08-18T13:11:28.847Z,21.13
2017-08-18T13:13:56.466Z,20.83
2017-08-18T13:16:24.080Z,20.54
2017-08-18T13:18:51.741Z,21.01
2017-08-18T13:21:19.401Z,21.21
2017-08-18T13:23:47.034Z,20.42
2017-08-18T13:26:14.971Z,20.04
2017-08-18T13:28:42.637Z,20.56
2017-08-18T13:31:10.234Z,19.02
2017-08-18T13:33:37.915Z,19.17
2017-08-18T13:36:05.516Z,19.71
2017-08-18T13:38:33.128Z,18.77
2017-08-18T13:41:00.789Z,19.05
2017-08-18T13:43:28.419Z,19.05
2017-08-18T13:45:56.035Z,19.35
2017-08-18T13:48:23.709Z,21.54
2017-08-18T13:50:51.320Z,20.31
2017-08-18T13:53:18.944Z,20.92
2017-08-18T13:55:46.613Z,20.19
2017-08-18T13:58:14.215Z,21.11
2017-08-18T14:00:41.822Z,20.72
2017-08-18T14:03:09.485Z,20.59
2017-08-18T14:05:37.104Z,20.54
2017-08-18T14:08:04.708Z,21.09
2017-08-18T14:10:32.420Z,21.11
2017-08-18T14:13:00.170Z,20.86
2017-08-18T14:15:27.975Z,20.91
2017-08-18T14:17:55.633Z,21.18
2017-08-18T14:20:23.240Z,21.13
2017-08-18T14:22:50.904Z,21.38
2017-08-18T14:25:24.148Z,21.04
2017-08-18T14:27:51.781Z,20.96
2017-08-18T14:30:19.448Z,21.67
2017-08-18T14:32:47.104Z,21.70
2017-08-18T14:35:14.707Z,21.37
2017-08-18T14:37:42.328Z,21.01
2017-08-18T14:40:09.989Z,21.42
2017-08-18T14:42:37.608Z,20.14
2017-08-18T14:45:05.312Z,21.22
2017-08-18T14:47:32.958Z,20.74
2017-08-18T14:50:00.554Z,20.61
2017-08-18T14:52:28.218Z,20.38
2017-08-18T14:54:55.899Z,21.16
2017-08-18T14:57:23.536Z,20.44
2017-08-18T14:59:51.143Z,21.26
2017-08-18T15:02:18.807Z,20.41
2017-08-18T15:04:46.412Z,20.38
2017-08-18T15:07:14.024Z,20.95
2017-08-18T15:09:41.696Z,21.06
2017-08-18T15:12:09.297Z,20.92
2017-08-18T15:14:36.894Z,21.05
2017-08-18T15:17:04.556Z,21.13
2017-08-18T15:19:32.172Z,20.87
2017-08-18T15:21:59.784Z,20.54
2017-08-18T15:24:27.457Z,20.89
2017-08-18T15:26:55.071Z,20.65
2017-08-18T15:29:22.689Z,21.22
2017-08-18T15:31:50.399Z,21.12
2017-08-18T15:34:18.001Z,22.20
2017-08-18T15:36:45.598Z,22.21
2017-08-18T15:39:13.274Z,22.22
2017-08-18T15:41:40.895Z,22.72
2017-08-18T15:44:08.490Z,22.64
2017-08-18T15:46:36.161Z,23.48
2017-08-18T15:49:03.812Z,23.43
2017-08-18T15:51:31.431Z,23.56
2017-08-18T15:53:59.097Z,23.92
2017-08-18T15:56:26.701Z,23.86
2017-08-18T15:58:54.420Z,24.50
2017-08-18T16:01:22.069Z,24.73
2017-08-18T16:03:49.658Z,24.49
2017-08-18T16:06:17.267Z,24.96
2017-08-18T16:08:44.913Z,24.40
2017-08-18T16:11:12.546Z,24.58
2017-08-18T16:13:40.144Z,25.01
2017-08-18T16:16:07.788Z,25.05
2017-08-18T16:18:35.391Z,25.14
2017-08-18T16:21:02.980Z,25.80
2017-08-18T16:23:30.631Z,25.82
2017-08-18T16:25:58.205Z,26.32
2017-08-18T16:28:25.812Z,26.94
2017-08-18T16:30:53.455Z,28.59
2017-08-18T16:33:21.060Z,30.03
2017-08-18T16:35:48.678Z,31.62
2017-08-18T16:38:16.398Z,31.31
2017-08-18T16:40:44.002Z,31.75
2017-08-18T16:43:11.663Z,30.52
2017-08-18T16:45:39.356Z,30.78
2017-08-18T16:48:06.974Z,31.38
2017-08-18T16:50:34.578Z,30.51
2017-08-18T16:53:02.231Z,31.46
2017-08-18T16:55:29.842Z,32.51
2017-08-18T16:57:57.464Z,33.40
2017-08-18T17:00:25.160Z,34.28
2017-08-18T17:02:52.767Z,35.30
2017-08-18T17:05:20.364Z,36.79
2017-08-18T17:07:48.067Z,38.65
2017-08-18T17:10:15.726Z,39.18
2017-08-18T17:12:43.345Z,39.32
2017-08-18T17:15:11.043Z,40.15
2017-08-18T17:17:38.655Z,40.57
2017-08-18T17:20:06.272Z,40.83
2017-08-18T17:22:33.958Z,41.18
2017-08-18T17:25:02.093Z,41.87
2017-08-18T17:27:29.794Z,42.20
2017-08-18T17:29:57.450Z,42.77
2017-08-18T17:32:25.044Z,42.53
2017-08-18T17:34:52.708Z,43.15
2017-08-18T17:37:20.356Z,43.54
2017-08-18T17:39:47.947Z,44.39
2017-08-18T17:42:15.575Z,45.08
2017-08-18T17:44:43.224Z,45.32
2017-08-18T17:47:10.823Z,46.22
2017-08-18T17:49:38.536Z,46.28
2017-08-18T17:52:06.191Z,46.71
2017-08-18T17:54:33.818Z,47.10
2017-08-18T17:57:01.441Z,50.06
2017-08-18T17:59:29.093Z,49.52
2017-08-18T18:01:56.729Z,53.71
2017-08-18T18:04:24.373Z,51.92
2017-08-18T18:06:52.096Z,50.10
2017-08-18T18:09:19.742Z,49.43
2017-08-18T18:11:47.349Z,51.76
2017-08-18T18:14:15.016Z,50.54
2017-08-18T18:16:42.628Z,54.13
2017-08-18T18:19:10.244Z,55.34
2017-08-18T18:21:37.908Z,53.83
2017-08-18T18:24:05.546Z,59.07
2017-08-18T18:26:33.128Z,58.93
2017-08-18T18:29:00.785Z,61.83
2017-08-18T18:31:28.384Z,63.05
2017-08-18T18:33:55.993Z,63.40
2017-08-18T18:36:23.657Z,63.88
2017-08-18T18:38:51.274Z,65.61
2017-08-18T18:41:18.867Z,66.27
2017-08-18T18:43:46.529Z,66.76
2017-08-18T18:46:14.158Z,67.32
2017-08-18T18:48:41.757Z,65.90
2017-08-18T18:51:09.458Z,68.63
2017-08-18T18:53:37.062Z,69.89
2017-08-18T18:56:04.803Z,70.17
2017-08-18T18:58:32.452Z,69.84
2017-08-18T19:01:00.083Z,69.55
2017-08-18T19:03:27.700Z,69.45
2017-08-18T19:05:55.358Z,70.55
2017-08-18T19:08:23.112Z,68.54
2017-08-18T19:10:50.721Z,69.96
2017-08-18T19:13:18.400Z,68.30
2017-08-18T19:15:45.999Z,65.73
2017-08-18T19:18:13.631Z,64.84
2017-08-18T19:20:41.294Z,65.08
2017-08-18T19:23:08.909Z,65.93
2017-08-18T19:25:36.513Z,65.74
2017-08-18T19:28:04.186Z,64.81
2017-08-18T19:30:31.792Z,61.86
2017-08-18T19:32:59.402Z,69.08
2017-08-18T19:35:27.061Z,69.74
2017-08-18T19:37:54.713Z,70.34
2017-08-18T19:40:22.321Z,71.00
2017-08-18T19:42:50.021Z,71.29
2017-08-18T19:45:17.632Z,71.96
2017-08-18T19:47:45.243Z,71.73
2017-08-18T19:50:12.924Z,72.50
2017-08-18T19:52:40.533Z,71.32
2017-08-18T19:55:08.163Z,72.35
2017-08-18T19:57:35.829Z,73.65
2017-08-18T20:00:03.435Z,74.07
2017-08-18T20:02:31.047Z,72.82
2017-08-18T20:04:58.723Z,71.91
2017-08-18T20:07:26.335Z,71.83
2017-08-18T20:09:53.944Z,69.84
2017-08-18T20:12:21.645Z,70.61
2017-08-18T20:14:49.264Z,70.79
2017-08-18T20:17:16.876Z,70.37
2017-08-18T20:19:44.527Z,71.53
2017-08-18T20:22:12.219Z,71.63
2017-08-18T20:24:39.877Z,72.79
2017-08-18T20:27:08.545Z,72.00
2017-08-18T20:29:36.209Z,71.50
2017-08-18T20:32:03.803Z,71.47
2017-08-18T20:34:31.474Z,72.00
2017-08-18T20:36:59.061Z,72.13
2017-08-18T20:39:26.710Z,72.14
2017-08-18T20:41:54.354Z,71.02
2017-08-18T20:44:21.948Z,71.08
2017-08-18T20:46:49.557Z,68.89
2017-08-18T20:49:17.236Z,72.11
2017-08-18T20:51:44.845Z,74.03
2017-08-18T20:54:12.464Z,74.53
2017-08-18T20:56:40.128Z,74.25
2017-08-18T20:59:07.759Z,75.04
2017-08-18T21:01:35.366Z,75.56
2017-08-18T21:04:03.072Z,73.54
2017-08-18T21:06:30.699Z,75.54
2017-08-18T21:08:58.317Z,74.98
2017-08-18T21:11:25.973Z,74.68
2017-08-18T21:13:53.584Z,75.68
2017-08-18T21:16:21.219Z,77.26
2017-08-18T21:18:48.903Z,77.83
2017-08-18T21:21:16.524Z,77.71
2017-08-18T21:23:44.136Z,77.82
2017-08-18T21:26:11.802Z,78.37
2017-08-18T21:28:39.411Z,78.27
2017-08-18T21:31:07.291Z,78.85
2017-08-18T21:33:34.962Z,78.91
2017-08-18T21:36:02.577Z,79.40
2017-08-18T21:38:30.208Z,80.05
2017-08-18T21:40:57.889Z,79.58
2017-08-18T21:43:25.481Z,80.04
2017-08-18T21:45:53.087Z,80.37
2017-08-18T21:48:20.729Z,79.92
2017-08-18T21:50:48.351Z,80.86
2017-08-18T21:53:15.969Z,80.65
2017-08-18T21:55:43.625Z,80.96
2017-08-18T21:58:11.235Z,81.38
2017-08-18T22:00:38.853Z,81.41
2017-08-18T22:03:06.513Z,81.39
2017-08-18T22:05:34.119Z,81.47
2017-08-18T22:08:01.736Z,81.46
2017-08-18T22:10:29.383Z,80.99
2017-08-18T22:12:56.982Z,81.20
2017-08-18T22:15:24.603Z,81.50
2017-08-18T22:17:52.265Z,81.30
2017-08-18T22:20:19.869Z,81.46
2017-08-18T22:22:47.476Z,81.78
2017-08-18T22:25:15.142Z,81.37
2017-08-18T22:27:42.900Z,81.50
2017-08-18T22:30:10.502Z,82.33
2017-08-18T22:32:38.210Z,82.40
2017-08-18T22:35:05.822Z,82.65
2017-08-18T22:37:33.423Z,82.89
2017-08-18T22:40:01.081Z,82.31
2017-08-18T22:42:28.694Z,82.33
2017-08-18T22:44:56.295Z,81.75
2017-08-18T22:47:23.969Z,82.07
2017-08-18T22:49:51.566Z,82.96
2017-08-18T22:52:19.170Z,83.64
2017-08-18T22:54:46.971Z,83.83
2017-08-18T22:57:14.569Z,83.39
2017-08-18T22:59:42.169Z,83.79
2017-08-18T23:02:09.817Z,83.92
2017-08-18T23:04:37.444Z,83.27
2017-08-18T23:07:05.069Z,82.55
2017-08-18T23:09:32.743Z,82.83
2017-08-18T23:12:00.354Z,83.29
2017-08-18T23:14:27.943Z,83.71
2017-08-18T23:16:55.605Z,83.64
2017-08-18T23:19:23.230Z,83.36
2017-08-18T23:21:50.831Z,83.18
2017-08-18T23:24:18.495Z,82.80
2017-08-18T23:26:46.087Z,83.45
2017-08-18T23:29:13.689Z,84.46
2017-08-18T23:31:41.361Z,84.55
2017-08-18T23:34:08.997Z,84.40
2017-08-18T23:36:36.582Z,84.49
2017-08-18T23:39:04.315Z,84.26
2017-08-18T23:41:31.921Z,84.76
2017-08-18T23:43:59.533Z,85.06
2017-08-18T23:46:27.185Z,85.59
2017-08-18T23:48:54.801Z,85.33
2017-08-18T23:51:22.415Z,85.46
2017-08-18T23:53:50.108Z,85.07
2017-08-18T23:56:17.717Z,85.28
2017-08-18T23:58:45.327Z,85.70
